Time;durP1;ratioP1;P1;durP2;ratioP2;P2;SDS_P1;SDS_P2;PMS_P1;PMS_P2;Temp;Humidity;BMP_temperature;BMP_pressure;BME280_temperature;BME280_humidity;BME280_pressure;Samples;Min_cycle;Max_cycle;Signal;HPM_P1;HPM_P2
2022/05/03 00:02:35;;;;;;;;;37.00;33.50;;;;;;;;5067408;28;45551;-66
2022/05/03 00:05:11;;;;;;;;;36.75;32.00;;;;;;;;5085378;27;45359;-66
2022/05/03 00:07:37;;;;;;;;;40.25;34.25;;;;;;;;5065880;27;45375;-67
2022/05/03 00:10:09;;;;;;;;;40.75;34.75;;;;;;;;5080531;27;45936;-67
2022/05/03 00:12:41;;;;;;;;;39.50;34.00;;;;;;;;5063630;28;45481;-67
2022/05/03 00:15:06;;;;;;;;;43.00;35.75;;;;;;;;5067014;28;45373;-67
2022/05/03 00:17:32;;;;;;;;;46.00;34.50;;;;;;;;5084332;27;45619;-66
2022/05/03 00:19:58;;;;;;;;;41.75;33.25;;;;;;;;5084831;27;45772;-67
2022/05/03 00:22:23;;;;;;;;;37.25;34.50;;;;;;;;5063859;27;45498;-65
2022/05/03 00:24:54;;;;;;;;;41.75;34.25;;;;;;;;5080504;27;45406;-67
2022/05/03 00:27:20;;;;;;;;;38.50;34.00;;;;;;;;5096673;27;45369;-66
2022/05/03 00:29:45;;;;;;;;;36.25;33.50;;;;;;;;5087599;27;46026;-67
2022/05/03 00:32:12;;;;;;;;;29.50;29.50;;;;;;;;5084706;27;45573;-66
2022/05/03 00:34:37;;;;;;;;;39.50;32.00;;;;;;;;5083822;27;45413;-66
2022/05/03 00:37:03;;;;;;;;;42.75;36.25;;;;;;;;5061778;27;45392;-66
2022/05/03 00:39:28;;;;;;;;;38.00;33.50;;;;;;;;5064027;28;47317;-67
2022/05/03 00:42:14;;;;;;;;;41.50;35.00;;;;;;;;5094092;27;45395;-68
2022/05/03 00:44:58;;;;;;;;;34.75;32.00;;;;;;;;5089524;27;45589;-68
2022/05/03 00:47:42;;;;;;;;;40.00;32.50;;;;;;;;5084059;27;45450;-66
2022/05/03 00:50:09;;;;;;;;;37.75;33.75;;;;;;;;5083729;27;45930;-66
2022/05/03 00:52:37;;;;;;;;;38.00;34.75;;;;;;;;5082918;27;45414;-66
2022/05/03 00:55:06;;;;;;;;;35.75;32.50;;;;;;;;5096044;27;45604;-66
2022/05/03 00:57:34;;;;;;;;;34.00;33.00;;;;;;;;5063558;28;45461;-67
2022/05/03 01:00:02;;;;;;;;;41.00;34.75;;;;;;;;5084222;27;45772;-66
2022/05/03 01:02:36;;;;;;;;;38.75;35.25;;;;;;;;5084239;27;45510;-66
2022/05/03 01:05:02;;;;;;;;;40.00;33.75;;;;;;;;5084244;27;45659;-66
2022/05/03 01:07:32;;;;;;;;;34.00;31.75;;;;;;;;5082002;27;45366;-66
2022/05/03 01:09:57;;;;;;;;;42.75;37.50;;;;;;;;5078897;27;47774;-66
2022/05/03 01:12:24;;;;;;;;;42.00;35.25;;;;;;;;5081938;27;45357;-67
2022/05/03 01:14:52;;;;;;;;;37.50;33.75;;;;;;;;5083589;27;45368;-67
2022/05/03 01:17:24;;;;;;;;;42.50;35.25;;;;;;;;5084126;27;45433;-67
2022/05/03 01:19:49;;;;;;;;;42.25;35.00;;;;;;;;5084639;27;46376;-66
2022/05/03 01:22:14;;;;;;;;;39.25;33.75;;;;;;;;5095758;27;45292;-66
2022/05/03 01:24:58;;;;;;;;;43.25;36.50;;;;;;;;5080773;27;45329;-66
2022/05/03 01:27:23;;;;;;;;;34.50;30.75;;;;;;;;5082611;27;45417;-66
2022/05/03 01:29:49;;;;;;;;;34.25;32.00;;;;;;;;5083673;27;46272;-66
2022/05/03 01:32:18;;;;;;;;;35.75;34.00;;;;;;;;5082567;27;45391;-67
2022/05/03 01:34:45;;;;;;;;;39.25;34.50;;;;;;;;5045779;28;45361;-66
2022/05/03 01:37:30;;;;;;;;;39.00;34.75;;;;;;;;5061187;27;45663;-66
2022/05/03 01:40:02;;;;;;;;;36.00;33.00;;;;;;;;5090556;27;45905;-66
2022/05/03 01:42:46;;;;;;;;;35.75;32.25;;;;;;;;5079933;27;45532;-66
2022/05/03 01:45:11;;;;;;;;;33.50;32.00;;;;;;;;5083829;27;45460;-67
2022/05/03 01:47:48;;;;;;;;;41.50;33.50;;;;;;;;5083753;27;45502;-65
2022/05/03 01:50:32;;;;;;;;;34.75;33.25;;;;;;;;5083594;27;46661;-65
2022/05/03 01:53:04;;;;;;;;;38.50;34.75;;;;;;;;5083226;27;45836;-65
2022/05/03 01:55:32;;;;;;;;;35.25;32.25;;;;;;;;5080320;27;45572;-66
2022/05/03 01:58:10;;;;;;;;;41.00;34.25;;;;;;;;5079013;27;45420;-65
2022/05/03 02:00:38;;;;;;;;;34.00;32.75;;;;;;;;5079976;27;46116;-65
2022/05/03 02:03:22;;;;;;;;;38.25;33.75;;;;;;;;5064899;28;45539;-66
2022/05/03 02:05:53;;;;;;;;;39.00;35.00;;;;;;;;5053856;28;45429;-65
2022/05/03 02:08:22;;;;;;;;;36.00;33.50;;;;;;;;5069812;27;45574;-65
2022/05/03 02:11:01;;;;;;;;;33.25;32.00;;;;;;;;5073228;27;47555;-65
2022/05/03 02:16:37;;;;;;;;;36.50;32.50;;;;;;;;5077408;27;45282;-66
2022/05/03 02:19:21;;;;;;;;;33.50;32.75;;;;;;;;5095123;27;45420;-67
2022/05/03 02:21:49;;;;;;;;;34.50;30.25;;;;;;;;5091187;27;46366;-67
2022/05/03 02:24:26;;;;;;;;;36.00;32.25;;;;;;;;5080923;27;47274;-66
2022/05/03 02:27:10;;;;;;;;;41.50;34.50;;;;;;;;5082733;27;45399;-66
2022/05/03 02:29:44;;;;;;;;;30.25;28.75;;;;;;;;5082738;27;45452;-66
2022/05/03 02:32:10;;;;;;;;;36.75;32.00;;;;;;;;5083113;27;45432;-66
2022/05/03 02:34:45;;;;;;;;;32.50;30.25;;;;;;;;5062906;27;45747;-65
2022/05/03 02:37:42;;;;;;;;;33.25;32.25;;;;;;;;5078328;27;45480;-65
2022/05/03 02:40:13;;;;;;;;;36.25;30.75;;;;;;;;5014908;28;45543;-65
2022/05/03 02:42:39;;;;;;;;;42.25;36.50;;;;;;;;5016305;28;45672;-66
2022/05/03 02:45:05;;;;;;;;;35.75;33.00;;;;;;;;5003218;28;45565;-66
2022/05/03 02:47:49;;;;;;;;;38.00;34.00;;;;;;;;5019956;28;45556;-66
2022/05/03 02:50:17;;;;;;;;;37.75;32.25;;;;;;;;5003632;28;45390;-66
2022/05/03 02:52:53;;;;;;;;;39.00;33.75;;;;;;;;5019106;28;45748;-66
2022/05/03 02:55:21;;;;;;;;;39.50;33.25;;;;;;;;5016038;28;45513;-66
2022/05/03 02:57:52;;;;;;;;;32.50;31.00;;;;;;;;5015436;28;45316;-66
2022/05/03 03:03:05;;;;;;;;;38.50;35.00;;;;;;;;5019040;28;45547;-66
2022/05/03 03:05:30;;;;;;;;;31.25;30.00;;;;;;;;5019030;28;45620;-66
2022/05/03 03:07:58;;;;;;;;;37.25;35.00;;;;;;;;5003015;28;45955;-66
2022/05/03 03:10:30;;;;;;;;;35.25;33.75;;;;;;;;4999744;28;45740;-66
2022/05/03 03:13:14;;;;;;;;;34.25;30.50;;;;;;;;5014249;28;47564;-66
2022/05/03 03:15:40;;;;;;;;;29.25;28.50;;;;;;;;5039875;28;45542;-65
2022/05/03 03:18:11;;;;;;;;;42.00;35.75;;;;;;;;5054303;28;45500;-65
2022/05/03 03:20:42;;;;;;;;;38.00;34.25;;;;;;;;5066491;28;45523;-65
2022/05/03 03:23:08;;;;;;;;;37.75;33.75;;;;;;;;5043650;28;48708;-66
2022/05/03 03:25:34;;;;;;;;;33.50;30.75;;;;;;;;5060338;28;45799;-66
2022/05/03 03:28:01;;;;;;;;;40.50;35.00;;;;;;;;5038716;28;45349;-65
2022/05/03 03:30:27;;;;;;;;;36.25;33.50;;;;;;;;5042160;28;45376;-65
2022/05/03 03:32:53;;;;;;;;;34.75;31.00;;;;;;;;5061900;28;45987;-65
2022/05/03 03:35:19;;;;;;;;;36.50;33.75;;;;;;;;5064812;28;45503;-66
2022/05/03 03:37:49;;;;;;;;;40.50;34.50;;;;;;;;5030872;28;45442;-65
2022/05/03 03:40:15;;;;;;;;;39.25;33.25;;;;;;;;5060779;28;45426;-66
2022/05/03 03:42:44;;;;;;;;;42.75;34.25;;;;;;;;5067407;28;46421;-65
2022/05/03 03:45:10;;;;;;;;;36.00;32.75;;;;;;;;5076855;28;45443;-65
2022/05/03 03:47:36;;;;;;;;;42.25;35.50;;;;;;;;5070097;28;45402;-65
2022/05/03 03:50:01;;;;;;;;;34.50;31.00;;;;;;;;5065551;28;45499;-66
2022/05/03 03:52:26;;;;;;;;;37.50;34.25;;;;;;;;5028101;28;48097;-65
2022/05/03 03:54:52;;;;;;;;;35.00;33.25;;;;;;;;5076808;28;45500;-65
2022/05/03 03:57:20;;;;;;;;;36.50;33.75;;;;;;;;5051623;28;45374;-66
2022/05/03 03:59:45;;;;;;;;;37.75;33.75;;;;;;;;5065490;28;45386;-66
2022/05/03 04:02:10;;;;;;;;;35.25;30.25;;;;;;;;5053674;28;45577;-65
2022/05/03 04:04:37;;;;;;;;;38.50;34.50;;;;;;;;5069552;27;45592;-65
2022/05/03 04:07:02;;;;;;;;;39.50;32.00;;;;;;;;5080471;27;45394;-65
2022/05/03 04:09:28;;;;;;;;;39.75;34.00;;;;;;;;5097540;27;45499;-65
2022/05/03 04:11:53;;;;;;;;;37.25;32.75;;;;;;;;5087198;27;45569;-66
2022/05/03 04:14:18;;;;;;;;;37.75;32.75;;;;;;;;5085558;27;45395;-65
2022/05/03 04:16:45;;;;;;;;;38.25;34.00;;;;;;;;5085286;27;45791;-66
2022/05/03 04:19:11;;;;;;;;;39.00;34.25;;;;;;;;5080574;27;45473;-65
2022/05/03 04:21:37;;;;;;;;;40.00;35.75;;;;;;;;5081895;27;46471;-66
2022/05/03 04:24:02;;;;;;;;;34.50;32.75;;;;;;;;5085022;27;45443;-65
2022/05/03 04:26:27;;;;;;;;;35.75;33.00;;;;;;;;5085203;27;45704;-66
2022/05/03 04:29:02;;;;;;;;;43.00;36.00;;;;;;;;5085143;27;45508;-66
2022/05/03 04:31:28;;;;;;;;;40.75;36.25;;;;;;;;5087848;27;45855;-65
2022/05/03 04:33:54;;;;;;;;;37.00;33.25;;;;;;;;5080469;27;45596;-66
2022/05/03 04:36:20;;;;;;;;;41.25;35.25;;;;;;;;5097215;27;45373;-66
2022/05/03 04:38:46;;;;;;;;;34.25;32.50;;;;;;;;5087774;27;45507;-66
2022/05/03 04:41:11;;;;;;;;;41.50;35.25;;;;;;;;5084194;27;45628;-66
2022/05/03 04:43:36;;;;;;;;;42.00;35.25;;;;;;;;5083366;27;45480;-66
2022/05/03 04:46:01;;;;;;;;;41.50;36.75;;;;;;;;5079432;27;45590;-66
2022/05/03 04:48:27;;;;;;;;;46.00;36.25;;;;;;;;5082429;27;45418;-65
2022/05/03 04:50:52;;;;;;;;;35.00;33.25;;;;;;;;5084555;27;47519;-65
2022/05/03 04:53:18;;;;;;;;;47.50;37.25;;;;;;;;5084388;27;45499;-65
2022/05/03 04:55:43;;;;;;;;;39.50;35.00;;;;;;;;5084412;27;45464;-65
2022/05/03 04:58:09;;;;;;;;;42.50;36.00;;;;;;;;5079380;27;46185;-66
2022/05/03 05:00:34;;;;;;;;;37.75;33.75;;;;;;;;5081037;27;45385;-65
2022/05/03 05:02:59;;;;;;;;;40.75;34.50;;;;;;;;5080282;27;45514;-65
2022/05/03 05:05:24;;;;;;;;;33.00;31.25;;;;;;;;5080545;27;45443;-66
2022/05/03 05:07:50;;;;;;;;;37.75;32.50;;;;;;;;5058924;27;45515;-66
2022/05/03 05:10:24;;;;;;;;;42.75;35.50;;;;;;;;5059804;27;47407;-66
2022/05/03 05:12:50;;;;;;;;;41.75;34.50;;;;;;;;5077719;27;45757;-66
2022/05/03 05:15:15;;;;;;;;;36.75;35.00;;;;;;;;5087560;27;45451;-65
2022/05/03 05:17:40;;;;;;;;;36.50;33.25;;;;;;;;5088331;27;45487;-66
2022/05/03 05:20:06;;;;;;;;;37.75;34.00;;;;;;;;5062260;27;46828;-67
2022/05/03 05:22:32;;;;;;;;;41.25;36.25;;;;;;;;5092038;27;45397;-65
2022/05/03 05:24:57;;;;;;;;;44.75;37.50;;;;;;;;5077349;27;45804;-66
2022/05/03 05:27:22;;;;;;;;;39.25;34.75;;;;;;;;5079275;27;45754;-65
2022/05/03 05:29:47;;;;;;;;;41.50;38.00;;;;;;;;5088214;27;45709;-65
2022/05/03 05:32:13;;;;;;;;;42.00;34.50;;;;;;;;5091131;27;45613;-65
2022/05/03 05:34:38;;;;;;;;;47.75;38.25;;;;;;;;5076296;27;47933;-66
2022/05/03 05:37:03;;;;;;;;;44.50;35.25;;;;;;;;5077727;27;45291;-66
2022/05/03 05:39:29;;;;;;;;;34.00;32.25;;;;;;;;5078516;27;46803;-67
2022/05/03 05:41:58;;;;;;;;;43.00;37.25;;;;;;;;5080027;27;45627;-67
2022/05/03 05:44:24;;;;;;;;;41.25;35.75;;;;;;;;5058983;28;45380;-66
2022/05/03 05:46:49;;;;;;;;;35.00;33.50;;;;;;;;5082478;27;45567;-68
2022/05/03 05:49:14;;;;;;;;;39.75;34.25;;;;;;;;5078495;27;46532;-67
2022/05/03 05:51:39;;;;;;;;;46.50;39.50;;;;;;;;5077801;27;45713;-67
2022/05/03 05:54:05;;;;;;;;;40.25;35.00;;;;;;;;5079972;27;45444;-66
2022/05/03 05:56:30;;;;;;;;;37.25;34.25;;;;;;;;5062275;28;45475;-66
2022/05/03 05:58:56;;;;;;;;;44.50;37.75;;;;;;;;5080862;27;45650;-66
2022/05/03 06:01:35;;;;;;;;;32.75;32.00;;;;;;;;5089537;27;45519;-66
2022/05/03 06:04:00;;;;;;;;;42.25;35.00;;;;;;;;5077793;27;45499;-65
2022/05/03 06:06:26;;;;;;;;;47.25;38.75;;;;;;;;5067581;28;45555;-65
2022/05/03 06:08:51;;;;;;;;;43.25;35.75;;;;;;;;5079340;27;45573;-66
2022/05/03 06:11:16;;;;;;;;;40.00;35.25;;;;;;;;5057746;28;45362;-66
2022/05/03 06:13:41;;;;;;;;;46.25;38.50;;;;;;;;5076536;27;45553;-66
2022/05/03 06:16:10;;;;;;;;;36.75;34.50;;;;;;;;5077152;27;45334;-65
2022/05/03 06:18:35;;;;;;;;;42.75;36.00;;;;;;;;5060616;27;47995;-66
2022/05/03 06:21:03;;;;;;;;;42.25;36.25;;;;;;;;5076885;27;45459;-66
2022/05/03 06:23:29;;;;;;;;;41.00;35.25;;;;;;;;5080071;27;45493;-66
2022/05/03 06:25:54;;;;;;;;;45.75;36.00;;;;;;;;5062145;27;45542;-66
2022/05/03 06:28:19;;;;;;;;;41.25;34.00;;;;;;;;5092809;27;45443;-66
2022/05/03 06:30:44;;;;;;;;;40.50;36.50;;;;;;;;5076783;27;45343;-66
2022/05/03 06:33:10;;;;;;;;;43.75;37.00;;;;;;;;5085796;27;45427;-66
2022/05/03 06:35:35;;;;;;;;;35.75;34.00;;;;;;;;5069546;28;45326;-65
2022/05/03 06:38:00;;;;;;;;;39.00;34.50;;;;;;;;5078967;27;46308;-66
2022/05/03 06:40:25;;;;;;;;;39.00;34.50;;;;;;;;5077556;27;45422;-67
2022/05/03 06:42:51;;;;;;;;;38.25;34.50;;;;;;;;5076983;27;45499;-66
2022/05/03 06:45:17;;;;;;;;;40.25;34.75;;;;;;;;5078846;27;45318;-66
2022/05/03 06:47:42;;;;;;;;;41.00;36.25;;;;;;;;5079052;27;46177;-67
2022/05/03 06:50:08;;;;;;;;;47.75;38.50;;;;;;;;5078863;27;45457;-66
2022/05/03 06:52:34;;;;;;;;;42.75;33.25;;;;;;;;5077478;27;45384;-67
2022/05/03 06:54:59;;;;;;;;;42.25;34.75;;;;;;;;5076843;27;45420;-66
2022/05/03 06:57:24;;;;;;;;;41.25;34.25;;;;;;;;5060178;28;49065;-67
2022/05/03 06:59:50;;;;;;;;;37.25;32.75;;;;;;;;5078257;27;45538;-66
2022/05/03 07:02:15;;;;;;;;;37.75;34.75;;;;;;;;5077994;27;45352;-66
2022/05/03 07:04:43;;;;;;;;;40.25;35.00;;;;;;;;5076782;27;45547;-66
2022/05/03 07:07:09;;;;;;;;;47.50;37.75;;;;;;;;5067028;27;46484;-68
2022/05/03 07:09:34;;;;;;;;;40.00;36.00;;;;;;;;5073973;27;45816;-67
2022/05/03 07:11:59;;;;;;;;;38.75;33.50;;;;;;;;5059222;27;45409;-67
2022/05/03 07:14:24;;;;;;;;;40.25;36.25;;;;;;;;5080600;27;45493;-67
2022/05/03 07:16:50;;;;;;;;;42.00;35.00;;;;;;;;5075112;27;46417;-68
2022/05/03 07:24:43;;;;;;;;;30.00;29.00;;;;;;;;5070195;27;45404;-67
2022/05/03 07:27:08;;;;;;;;;37.50;32.25;;;;;;;;5075705;27;46728;-68
2022/05/03 07:29:35;;;;;;;;;42.50;34.00;;;;;;;;5061018;28;45409;-68
2022/05/03 07:32:00;;;;;;;;;38.50;33.00;;;;;;;;5081129;27;45473;-68
2022/05/03 07:34:26;;;;;;;;;36.75;33.50;;;;;;;;5086421;27;45409;-68
2022/05/03 07:36:51;;;;;;;;;34.25;33.00;;;;;;;;5072728;27;46399;-68
2022/05/03 07:39:16;;;;;;;;;29.75;29.25;;;;;;;;5085791;27;45817;-69
2022/05/03 07:41:41;;;;;;;;;37.00;31.00;;;;;;;;5080730;27;45763;-67
2022/05/03 07:44:06;;;;;;;;;37.25;32.75;;;;;;;;5053891;28;45512;-68
2022/05/03 07:46:32;;;;;;;;;32.50;31.25;;;;;;;;5069320;27;46629;-67
2022/05/03 07:48:58;;;;;;;;;36.75;33.25;;;;;;;;5072166;27;45416;-67
2022/05/03 07:51:23;;;;;;;;;35.25;31.00;;;;;;;;5077337;27;45526;-67
2022/05/03 07:53:49;;;;;;;;;33.00;29.25;;;;;;;;5076788;27;45535;-68
2022/05/03 07:56:14;;;;;;;;;30.50;30.00;;;;;;;;5076824;27;45916;-68
2022/05/03 07:58:39;;;;;;;;;32.50;30.50;;;;;;;;5054676;27;45837;-68
2022/05/03 08:01:05;;;;;;;;;33.75;29.50;;;;;;;;5074720;27;45850;-67
2022/05/03 08:03:30;;;;;;;;;35.00;32.00;;;;;;;;5064903;28;45633;-68
2022/05/03 08:05:55;;;;;;;;;40.00;33.50;;;;;;;;5063826;27;47199;-67
2022/05/03 08:08:21;;;;;;;;;33.00;30.25;;;;;;;;5062730;27;45438;-68
2022/05/03 08:10:47;;;;;;;;;36.00;33.50;;;;;;;;5068182;28;45592;-68
2022/05/03 08:13:12;;;;;;;;;26.50;25.75;;;;;;;;5055706;27;46208;-68
2022/05/03 08:15:38;;;;;;;;;32.25;30.50;;;;;;;;5085982;27;47388;-67
2022/05/03 08:18:04;;;;;;;;;32.75;30.25;;;;;;;;5081306;27;45498;-66
2022/05/03 08:20:29;;;;;;;;;27.75;26.50;;;;;;;;5078171;27;45792;-68
2022/05/03 08:22:54;;;;;;;;;30.00;28.25;;;;;;;;5080427;27;45540;-68
2022/05/03 08:25:19;;;;;;;;;32.25;30.50;;;;;;;;5078273;27;46869;-69
2022/05/03 08:27:45;;;;;;;;;29.67;29.00;;;;;;;;5077424;27;45429;-68
2022/05/03 08:30:10;;;;;;;;;33.25;31.00;;;;;;;;5086535;27;45672;-68
2022/05/03 08:32:36;;;;;;;;;31.50;30.25;;;;;;;;5088476;27;45798;-68
2022/05/03 08:35:01;;;;;;;;;27.00;26.75;;;;;;;;5062079;27;47620;-68
2022/05/03 08:42:55;;;;;;;;;33.25;31.00;;;;;;;;5076455;27;45551;-68
2022/05/03 08:45:20;;;;;;;;;35.25;30.00;;;;;;;;5065318;28;48549;-68
2022/05/03 08:47:47;;;;;;;;;30.25;28.75;;;;;;;;5066869;28;45429;-67
2022/05/03 08:50:12;;;;;;;;;29.00;29.00;;;;;;;;5079897;27;45460;-68
2022/05/03 08:52:48;;;;;;;;;30.00;28.75;;;;;;;;5078722;27;45664;-68
2022/05/03 08:55:14;;;;;;;;;27.00;27.00;;;;;;;;5076769;27;45795;-68
2022/05/03 08:57:41;;;;;;;;;27.00;24.50;;;;;;;;5089408;27;45579;-68
2022/05/03 09:00:06;;;;;;;;;29.00;28.25;;;;;;;;5084210;27;45395;-68
2022/05/03 09:02:34;;;;;;;;;30.00;27.75;;;;;;;;5079587;27;45389;-69
2022/05/03 09:05:00;;;;;;;;;29.75;27.75;;;;;;;;5079567;27;46744;-68
2022/05/03 09:07:26;;;;;;;;;31.25;27.75;;;;;;;;5077653;27;45353;-68
2022/05/03 09:09:52;;;;;;;;;26.00;24.50;;;;;;;;5067743;27;46305;-68
2022/05/03 09:12:35;;;;;;;;;33.00;32.00;;;;;;;;5079399;27;45660;-69
2022/05/03 09:15:01;;;;;;;;;28.25;26.50;;;;;;;;5082348;27;47492;-68
2022/05/03 09:17:39;;;;;;;;;28.00;27.00;;;;;;;;5057827;28;45482;-68
2022/05/03 09:25:55;;;;;;;;;30.25;29.25;;;;;;;;5079237;27;45394;-68
2022/05/03 09:28:21;;;;;;;;;25.75;24.00;;;;;;;;5056050;28;45503;-67
2022/05/03 09:30:50;;;;;;;;;30.50;27.00;;;;;;;;5076670;27;45564;-67
2022/05/03 09:33:16;;;;;;;;;28.75;24.25;;;;;;;;5078990;27;45538;-66
2022/05/03 09:35:41;;;;;;;;;25.00;22.25;;;;;;;;5078709;27;45897;-67
2022/05/03 09:38:06;;;;;;;;;23.75;23.25;;;;;;;;5078791;27;45498;-68
2022/05/03 09:40:35;;;;;;;;;25.00;25.00;;;;;;;;5077377;27;45524;-67
2022/05/03 09:43:01;;;;;;;;;31.00;28.00;;;;;;;;5058659;27;45775;-67
2022/05/03 09:45:26;;;;;;;;;29.75;27.75;;;;;;;;5060146;28;46927;-67
2022/05/03 09:47:53;;;;;;;;;25.25;24.25;;;;;;;;5082470;27;45547;-68
2022/05/03 09:50:28;;;;;;;;;26.75;26.00;;;;;;;;5090044;27;45515;-68
2022/05/03 09:52:53;;;;;;;;;28.00;25.50;;;;;;;;5079004;27;45637;-67
2022/05/03 09:55:32;;;;;;;;;24.50;24.50;;;;;;;;5077030;27;46353;-68
2022/05/03 09:58:02;;;;;;;;;23.75;22.75;;;;;;;;5067583;27;45590;-66
2022/05/03 10:00:28;;;;;;;;;26.50;21.75;;;;;;;;5078857;27;45452;-68
2022/05/03 10:02:54;;;;;;;;;29.75;25.75;;;;;;;;5078501;27;45833;-68
2022/05/03 10:05:21;;;;;;;;;21.50;19.50;;;;;;;;5058224;27;48564;-68
2022/05/03 10:07:47;;;;;;;;;23.50;22.25;;;;;;;;5081417;27;45492;-67
2022/05/03 10:10:14;;;;;;;;;28.00;25.75;;;;;;;;5083409;27;45909;-67
2022/05/03 10:12:41;;;;;;;;;21.25;19.25;;;;;;;;5077429;27;45636;-67
2022/05/03 10:15:06;;;;;;;;;25.75;25.50;;;;;;;;5078416;27;46671;-68
2022/05/03 10:20:40;;;;;;;;;22.75;20.25;;;;;;;;5076950;27;47953;-68
2022/05/03 10:23:23;;;;;;;;;18.50;18.50;;;;;;;;5078443;27;45626;-68
2022/05/03 10:25:49;;;;;;;;;22.50;20.25;;;;;;;;5079207;27;45690;-66
2022/05/03 10:28:15;;;;;;;;;16.50;16.50;;;;;;;;5087588;27;45695;-66
2022/05/03 10:30:58;;;;;;;;;15.25;15.25;;;;;;;;5078317;27;45456;-66
2022/05/03 10:33:24;;;;;;;;;20.00;18.00;;;;;;;;5087814;27;45793;-68
2022/05/03 10:35:49;;;;;;;;;18.50;18.50;;;;;;;;5065909;28;48556;-66
2022/05/03 10:38:15;;;;;;;;;17.50;17.00;;;;;;;;5081299;27;45601;-67
2022/05/03 10:40:47;;;;;;;;;14.00;14.00;;;;;;;;5093688;27;45645;-68
2022/05/03 10:43:14;;;;;;;;;17.50;16.50;;;;;;;;5055124;28;45370;-68
2022/05/03 10:45:48;;;;;;;;;17.00;13.50;;;;;;;;5084702;27;46322;-67
2022/05/03 10:48:33;;;;;;;;;14.75;14.75;;;;;;;;5080729;27;45571;-67
2022/05/03 10:51:03;;;;;;;;;18.00;16.75;;;;;;;;5076503;27;45417;-67
2022/05/03 10:53:29;;;;;;;;;12.50;11.00;;;;;;;;5077999;27;45960;-66
2022/05/03 10:56:00;;;;;;;;;15.50;14.50;;;;;;;;5079075;27;46505;-66
2022/05/03 10:58:30;;;;;;;;;14.00;14.00;;;;;;;;5077851;27;45433;-66
2022/05/03 11:01:02;;;;;;;;;14.25;14.25;;;;;;;;5051730;27;45558;-66
2022/05/03 11:03:27;;;;;;;;;11.00;11.00;;;;;;;;5075116;27;45701;-68
2022/05/03 11:06:11;;;;;;;;;13.25;13.25;;;;;;;;5078258;27;47296;-66
2022/05/03 11:08:36;;;;;;;;;12.50;11.75;;;;;;;;5079482;27;45704;-68
2022/05/03 11:11:02;;;;;;;;;11.75;11.25;;;;;;;;5059006;28;45610;-67
2022/05/03 11:13:37;;;;;;;;;10.50;9.75;;;;;;;;5085741;27;45562;-68
2022/05/03 11:16:18;;;;;;;;;12.50;11.00;;;;;;;;5076013;27;45925;-68
2022/05/03 11:18:44;;;;;;;;;11.00;11.00;;;;;;;;5082805;27;45484;-67
2022/05/03 11:21:15;;;;;;;;;8.50;8.25;;;;;;;;5088917;27;45530;-67
2022/05/03 11:23:51;;;;;;;;;3.25;3.00;;;;;;;;5069782;27;45815;-67
2022/05/03 11:26:17;;;;;;;;;9.25;9.00;;;;;;;;5085555;27;45483;-66
2022/05/03 11:28:44;;;;;;;;;9.75;9.00;;;;;;;;5073992;27;45593;-66
2022/05/03 11:31:09;;;;;;;;;9.75;8.75;;;;;;;;5081270;27;45957;-67
2022/05/03 11:33:48;;;;;;;;;11.75;11.00;;;;;;;;5075192;27;46131;-65
2022/05/03 11:36:13;;;;;;;;;12.75;10.75;;;;;;;;5080128;27;47700;-66
2022/05/03 11:38:39;;;;;;;;;8.00;7.00;;;;;;;;5076841;27;45545;-66
2022/05/03 11:41:06;;;;;;;;;13.00;10.25;;;;;;;;5064628;27;45512;-67
2022/05/03 11:43:35;;;;;;;;;10.75;9.25;;;;;;;;5078942;27;45561;-66
2022/05/03 11:46:00;;;;;;;;;9.00;8.75;;;;;;;;5087943;27;45798;-67
2022/05/03 11:48:25;;;;;;;;;11.25;10.75;;;;;;;;5065850;28;45810;-67
2022/05/03 11:56:26;;;;;;;;;8.00;8.00;;;;;;;;5080192;27;45458;-67
2022/05/03 11:58:52;;;;;;;;;9.00;8.00;;;;;;;;5087602;27;45432;-67
2022/05/03 12:01:17;;;;;;;;;10.25;8.25;;;;;;;;5079084;27;45515;-66
2022/05/03 12:03:46;;;;;;;;;7.25;5.75;;;;;;;;5084402;27;45518;-68
2022/05/03 12:06:12;;;;;;;;;8.00;6.75;;;;;;;;5082122;27;46736;-68
2022/05/03 12:08:37;;;;;;;;;10.25;8.00;;;;;;;;5080827;27;45504;-68
2022/05/03 12:11:02;;;;;;;;;10.00;8.25;;;;;;;;5065731;28;48607;-67
2022/05/03 12:13:29;;;;;;;;;8.25;7.00;;;;;;;;5078688;27;45416;-69
2022/05/03 12:15:57;;;;;;;;;6.25;6.25;;;;;;;;5077848;27;47608;-68
2022/05/03 12:18:28;;;;;;;;;8.00;8.00;;;;;;;;5068752;28;46395;-68
2022/05/03 12:20:55;;;;;;;;;9.00;9.00;;;;;;;;5055544;28;45388;-68
2022/05/03 12:23:23;;;;;;;;;8.25;8.00;;;;;;;;5082573;27;45666;-67
2022/05/03 12:25:55;;;;;;;;;8.50;7.50;;;;;;;;5097159;27;46279;-67
2022/05/03 12:28:33;;;;;;;;;8.25;8.25;;;;;;;;5083941;27;45459;-68
2022/05/03 12:30:59;;;;;;;;;7.50;6.50;;;;;;;;5063513;27;45512;-68
2022/05/03 12:33:25;;;;;;;;;8.00;8.00;;;;;;;;5067862;27;45378;-68
2022/05/03 12:35:50;;;;;;;;;10.50;8.00;;;;;;;;5083863;27;45689;-68
2022/05/03 12:38:17;;;;;;;;;10.50;9.75;;;;;;;;5079827;27;45464;-68
2022/05/03 12:40:53;;;;;;;;;6.75;6.75;;;;;;;;5086585;27;45609;-68
2022/05/03 12:43:21;;;;;;;;;6.25;6.25;;;;;;;;5090756;27;45524;-69
2022/05/03 12:45:59;;;;;;;;;8.50;6.25;;;;;;;;5085368;27;45753;-69
2022/05/03 12:48:25;;;;;;;;;6.25;6.00;;;;;;;;5080395;27;45455;-70
2022/05/03 12:50:50;;;;;;;;;7.00;7.00;;;;;;;;5064117;27;45457;-69
2022/05/03 12:53:16;;;;;;;;;9.50;8.75;;;;;;;;5089394;27;45561;-68
2022/05/03 12:55:41;;;;;;;;;7.75;7.75;;;;;;;;5061767;28;48430;-68
2022/05/03 12:58:21;;;;;;;;;9.75;8.25;;;;;;;;5087124;27;45419;-68
2022/05/03 13:00:47;;;;;;;;;5.00;5.00;;;;;;;;5078566;27;45424;-69
2022/05/03 13:03:12;;;;;;;;;7.75;6.75;;;;;;;;5088084;27;45744;-68
2022/05/03 13:05:38;;;;;;;;;8.75;7.00;;;;;;;;5085535;27;45745;-68
2022/05/03 13:08:03;;;;;;;;;6.00;6.00;;;;;;;;5080552;27;45377;-69
2022/05/03 13:10:29;;;;;;;;;6.00;5.50;;;;;;;;5084277;27;45992;-69
2022/05/03 13:12:54;;;;;;;;;6.00;6.00;;;;;;;;5078947;27;45670;-67
2022/05/03 13:15:19;;;;;;;;;7.50;7.50;;;;;;;;5081527;27;46199;-68
2022/05/03 13:17:44;;;;;;;;;8.00;6.75;;;;;;;;5067352;28;45539;-68
2022/05/03 13:20:09;;;;;;;;;7.50;6.25;;;;;;;;5065866;27;45635;-68
2022/05/03 13:22:35;;;;;;;;;7.50;7.00;;;;;;;;5073204;27;45423;-68
2022/05/03 13:25:00;;;;;;;;;8.00;7.25;;;;;;;;5058742;27;47636;-67
2022/05/03 13:27:25;;;;;;;;;6.25;6.25;;;;;;;;5088324;27;45463;-67
2022/05/03 13:29:50;;;;;;;;;6.25;6.25;;;;;;;;5084891;27;45519;-66
2022/05/03 13:32:16;;;;;;;;;6.00;6.00;;;;;;;;5079814;27;45522;-68
2022/05/03 13:34:41;;;;;;;;;6.00;5.25;;;;;;;;5085181;27;45651;-68
2022/05/03 13:42:34;;;;;;;;;6.75;6.75;;;;;;;;5090871;27;45479;-68
2022/05/03 13:45:00;;;;;;;;;6.75;6.75;;;;;;;;5084415;27;47271;-68
2022/05/03 13:47:25;;;;;;;;;8.50;8.50;;;;;;;;5086148;27;45468;-68
2022/05/03 13:49:51;;;;;;;;;5.00;5.00;;;;;;;;5079963;27;45413;-67
2022/05/03 13:52:17;;;;;;;;;6.75;6.25;;;;;;;;5082083;27;45347;-69
2022/05/03 13:54:43;;;;;;;;;7.50;6.00;;;;;;;;5089011;27;48440;-69
2022/05/03 13:57:08;;;;;;;;;6.75;6.75;;;;;;;;5069185;27;45509;-68
2022/05/03 13:59:34;;;;;;;;;9.00;7.25;;;;;;;;5067134;28;45880;-68
2022/05/03 14:01:59;;;;;;;;;5.00;5.00;;;;;;;;5091921;27;45395;-68
2022/05/03 14:04:24;;;;;;;;;3.50;3.50;;;;;;;;5089421;27;45459;-65
2022/05/03 14:06:49;;;;;;;;;5.75;5.75;;;;;;;;5082571;27;45397;-67
2022/05/03 14:09:14;;;;;;;;;4.00;4.00;;;;;;;;5093551;27;45579;-68
2022/05/03 14:11:40;;;;;;;;;6.00;6.00;;;;;;;;5089158;27;45407;-68
2022/05/03 14:14:05;;;;;;;;;6.00;6.00;;;;;;;;5093187;27;46452;-68
2022/05/03 14:16:30;;;;;;;;;5.25;5.25;;;;;;;;5091506;27;45628;-68
2022/05/03 14:18:56;;;;;;;;;8.75;6.25;;;;;;;;5078683;27;45275;-68
2022/05/03 14:21:21;;;;;;;;;5.00;5.00;;;;;;;;5096161;27;45907;-69
2022/05/03 14:23:46;;;;;;;;;7.25;7.25;;;;;;;;5087236;27;45998;-68
2022/05/03 14:26:12;;;;;;;;;6.00;6.00;;;;;;;;5065189;28;45443;-69
2022/05/03 14:28:37;;;;;;;;;5.50;5.50;;;;;;;;5091401;27;45521;-68
2022/05/03 14:31:03;;;;;;;;;4.50;4.50;;;;;;;;5060352;27;45376;-68
2022/05/03 14:33:28;;;;;;;;;5.25;5.25;;;;;;;;5063442;28;47438;-68
2022/05/03 14:35:54;;;;;;;;;8.50;7.50;;;;;;;;5083570;27;45599;-69
2022/05/03 14:38:19;;;;;;;;;5.50;5.50;;;;;;;;5083728;27;45784;-69
2022/05/03 14:40:44;;;;;;;;;6.25;6.25;;;;;;;;5083270;27;45373;-69
2022/05/03 14:43:10;;;;;;;;;5.25;5.25;;;;;;;;5078489;27;45740;-68
2022/05/03 14:45:35;;;;;;;;;7.00;6.00;;;;;;;;5062354;28;46123;-69
2022/05/03 14:48:01;;;;;;;;;6.00;6.00;;;;;;;;5082561;27;49367;-68
2022/05/03 14:50:28;;;;;;;;;7.25;6.25;;;;;;;;5083376;27;45506;-68
2022/05/03 14:52:53;;;;;;;;;8.00;7.25;;;;;;;;5082666;27;46001;-69
2022/05/03 14:55:18;;;;;;;;;4.75;4.75;;;;;;;;5060446;27;45610;-68
2022/05/03 15:03:11;;;;;;;;;6.00;6.00;;;;;;;;5087412;27;45672;-67
2022/05/03 15:05:38;;;;;;;;;5.50;5.50;;;;;;;;5087784;27;45307;-66
2022/05/03 15:08:05;;;;;;;;;5.25;5.25;;;;;;;;5083213;27;45823;-67
2022/05/03 15:10:31;;;;;;;;;5.50;5.00;;;;;;;;5080098;27;45464;-67